Norwalk, IA (50211)

6:13 PM CST on December 07, 2016 (GMT -0600)
Bristol Street | | Change Station

Elev 931 ft 41.48 °N, 93.68 °W | Updated 21 minutes ago

Scattered Clouds
Scattered Clouds
21.9 °F
Feels Like 13 °F
N
7.5
Wind Variable Wind from NNW
Gusts 12.4 mph

Today
High -- | Low -- °F
--% Chance of Precip.
Yesterday
High -- | Low -- °F
Precip. -- in
Pressure 30.34 in
Visibility 10.0 miles
Clouds Few 3000 ft
Few 14000 ft
Scattered Clouds 25000 ft
Windchill 13 °F
Dew Point 13 °F
Humidity 69%
Rainfall 0.00 in
Snow Depth Not available.
7:28 AM 4:44 PM
First Quarter, 57% visible
METAR KDSM 072354Z 31015KT 10SM FEW030 FEW140 SCT250 M06/M13 A3029 RMK AO2 SLP272 T10561128 11039 21056 53014
Pressure 30.34 in
Visibility 10.0 miles
Clouds Few 3000 ft
Few 14000 ft
Scattered Clouds 25000 ft
Windchill 13 °F
Dew Point 13 °F
Humidity 69%
Rainfall 0.00 in
Snow Depth Not available.
7:28 AM 4:44 PM
First Quarter, 57% visible
METAR KDSM 072354Z 31015KT 10SM FEW030 FEW140 SCT250 M06/M13 A3029 RMK AO2 SLP272 T10561128 11039 21056 53014

10-Day Weather Forecast

Almanac

Astronomy

Dec. 07, 2016 Rise Set
Actual Time
Civil Twilight
Nautical Twilight
Astronomical Twilight
Moon
Length of Visible Light
Length of Day
Tomorrow will be .
, % of the Moon is Illuminated

Today's Extremes

State Highs State Lows

Community

WunderPhotos

Upload Photos

1,956,221 photos uploaded!

WunderBlog® & News

Nearby

Air Quality

  Air Quality AQ Index Pollutant
Not available.

Snow Depth

Station Depth Elevation

Earthquake Activity

City Distance Mag. Time & Date
Minimum magnitude displayed is 2.5.

Coastal Water Temperatures

Place Temperature

Stations

Nearby Weather Stations

Station Location Temp. Windchill Dew Point Humidity Wind Precip. Elev Updated Type
                   

Watches & Warnings

There are currently no watches in effect.